createdAt,value
2017-04-07T00:00:20.237Z,6.22
2017-04-07T00:01:19.324Z,7.45
2017-04-07T00:02:18.411Z,6.70
2017-04-07T00:03:17.516Z,7.77
2017-04-07T00:04:16.605Z,7.68
2017-04-07T00:05:15.700Z,6.00
2017-04-07T00:06:14.787Z,5.53
2017-04-07T00:07:13.883Z,6.83
2017-04-07T00:08:12.987Z,6.72
2017-04-07T00:09:12.832Z,8.23
2017-04-07T00:10:11.972Z,6.68
2017-04-07T00:11:11.812Z,4.93
2017-04-07T00:12:11.024Z,6.88
2017-04-07T00:13:10.139Z,6.18
2017-04-07T00:14:09.963Z,6.22
2017-04-07T00:15:09.052Z,5.65
2017-04-07T00:16:08.143Z,6.33
2017-04-07T00:17:07.245Z,7.35
2017-04-07T00:18:06.351Z,7.48
2017-04-07T00:19:05.515Z,7.00
2017-04-07T00:20:04.612Z,6.12
2017-04-07T00:21:03.711Z,7.60
2017-04-07T00:22:02.804Z,6.65
2017-04-07T00:23:01.936Z,6.67
2017-04-07T00:24:01.066Z,6.33
2017-04-07T00:25:00.164Z,6.85
2017-04-07T00:25:59.252Z,7.07
2017-04-07T00:26:58.338Z,5.85
2017-04-07T00:27:57.445Z,5.38
2017-04-07T00:28:57.283Z,5.07
2017-04-07T00:29:56.371Z,4.80
2017-04-07T00:30:55.459Z,5.53
2017-04-07T00:31:54.548Z,5.65
2017-04-07T00:32:53.668Z,6.08
2017-04-07T00:33:52.839Z,6.22
2017-04-07T00:34:51.928Z,8.72
2017-04-07T00:35:51.012Z,6.40
2017-04-07T00:36:50.108Z,6.33
2017-04-07T00:37:49.281Z,5.80
2017-04-07T00:38:48.399Z,6.37
2017-04-07T00:39:48.240Z,5.33
2017-04-07T00:40:47.368Z,6.35
2017-04-07T00:41:46.524Z,5.53
2017-04-07T00:42:45.639Z,6.60
2017-04-07T00:43:44.784Z,6.35
2017-04-07T00:44:43.879Z,6.28
2017-04-07T00:45:43.088Z,8.83
2017-04-07T00:46:42.204Z,7.32
2017-04-07T00:47:42.040Z,8.12
2017-04-07T00:48:41.135Z,6.48
2017-04-07T00:49:40.241Z,5.92
2017-04-07T00:50:39.331Z,8.07
2017-04-07T00:51:38.436Z,6.15
2017-04-07T00:52:37.559Z,9.77
2017-04-07T00:53:36.652Z,7.25
2017-04-07T00:54:35.774Z,7.88
2017-04-07T00:55:34.867Z,8.75
2017-04-07T00:56:34.047Z,6.38
2017-04-07T00:57:33.132Z,6.50
2017-04-07T00:58:32.248Z,7.07
2017-04-07T00:59:32.120Z,8.25
2017-04-07T01:00:31.341Z,9.40
2017-04-07T01:01:31.176Z,8.47
2017-04-07T01:02:30.276Z,9.05
2017-04-07T01:03:29.360Z,6.88
2017-04-07T01:04:28.444Z,7.93
2017-04-07T01:05:27.584Z,7.30
2017-04-07T01:06:27.428Z,7.67
2017-04-07T01:07:26.516Z,6.20
2017-04-07T01:08:25.668Z,8.90
2017-04-07T01:09:25.503Z,7.30
2017-04-07T01:10:24.628Z,8.78
2017-04-07T01:11:23.732Z,8.62
2017-04-07T01:12:23.583Z,8.82
2017-04-07T01:13:22.689Z,7.80
2017-04-07T01:14:21.807Z,7.55
2017-04-07T01:15:21.664Z,10.25
2017-04-07T01:16:21.174Z,8.07
2017-04-07T01:17:20.308Z,10.37
2017-04-07T01:18:20.142Z,9.38
2017-04-07T01:19:19.248Z,9.25
2017-04-07T01:20:18.351Z,9.65
2017-04-07T01:21:17.524Z,9.93
2017-04-07T01:22:16.623Z,11.13
2017-04-07T01:23:15.732Z,7.55
2017-04-07T01:24:15.564Z,8.15
2017-04-07T01:25:14.707Z,9.53
2017-04-07T01:26:14.556Z,10.60
2017-04-07T01:27:13.709Z,9.03
2017-04-07T01:28:13.543Z,10.43
2017-04-07T01:29:12.647Z,8.60
2017-04-07T01:30:11.744Z,8.78
2017-04-07T01:31:10.887Z,12.17
2017-04-07T01:32:09.992Z,11.00
2017-04-07T01:33:09.204Z,8.12
2017-04-07T01:34:08.295Z,8.08
2017-04-07T01:35:07.403Z,11.18
2017-04-07T01:36:07.247Z,9.22
2017-04-07T01:37:06.348Z,11.50
2017-04-07T01:38:05.447Z,10.60
2017-04-07T01:39:04.888Z,10.13
2017-04-07T01:40:03.982Z,9.58
2017-04-07T01:41:03.106Z,12.45
2017-04-07T01:42:02.204Z,10.17
2017-04-07T01:43:01.356Z,11.92
2017-04-07T01:44:00.468Z,8.72
2017-04-07T01:44:59.596Z,8.65
2017-04-07T01:45:59.471Z,8.67
2017-04-07T01:46:59.015Z,8.00
2017-04-07T01:47:58.116Z,10.48
2017-04-07T01:48:57.255Z,9.37
2017-04-07T01:49:57.100Z,8.67
2017-04-07T01:50:56.199Z,9.18
2017-04-07T01:51:55.315Z,10.18
2017-04-07T01:52:54.417Z,10.73
2017-04-07T01:53:54.264Z,10.80
2017-04-07T01:54:53.356Z,12.87
2017-04-07T01:55:52.444Z,9.45
2017-04-07T01:56:51.584Z,11.23
2017-04-07T01:57:51.419Z,11.15
2017-04-07T01:58:50.515Z,11.95
2017-04-07T01:59:49.600Z,9.38
2017-04-07T02:00:48.684Z,8.00
2017-04-07T02:01:47.783Z,8.32
2017-04-07T02:02:46.924Z,9.70
2017-04-07T02:03:46.107Z,9.65
2017-04-07T02:04:45.951Z,10.50
2017-04-07T02:05:45.087Z,12.18
2017-04-07T02:06:44.940Z,12.30
2017-04-07T02:07:44.064Z,11.17
2017-04-07T02:08:43.479Z,10.85
2017-04-07T02:09:43.320Z,13.92
2017-04-07T02:10:42.523Z,14.20
2017-04-07T02:11:41.620Z,10.90
2017-04-07T02:12:40.741Z,10.10
2017-04-07T02:13:39.911Z,10.23
2017-04-07T02:14:39.743Z,10.02
2017-04-07T02:15:38.879Z,10.00
2017-04-07T02:16:38.000Z,10.22
2017-04-07T02:17:37.872Z,14.23
2017-04-07T02:18:37.023Z,12.82
2017-04-07T02:19:36.130Z,12.00
2017-04-07T02:20:35.247Z,11.77
2017-04-07T02:21:35.099Z,13.23
2017-04-07T02:22:34.235Z,12.47
2017-04-07T02:23:33.347Z,10.30
2017-04-07T02:24:32.476Z,10.68
2017-04-07T02:25:31.584Z,12.95
2017-04-07T02:26:30.783Z,12.48
2017-04-07T02:27:30.422Z,11.53
2017-04-07T02:28:29.547Z,12.25
2017-04-07T02:29:28.668Z,10.52
2017-04-07T02:30:28.518Z,11.93
2017-04-07T02:31:27.632Z,12.30
2017-04-07T02:32:27.512Z,12.10
2017-04-07T02:33:26.639Z,10.70
2017-04-07T02:34:26.487Z,14.38
2017-04-07T02:35:26.236Z,11.93
2017-04-07T02:36:26.105Z,12.98
2017-04-07T02:37:25.212Z,13.05
2017-04-07T02:38:24.651Z,13.18
2017-04-07T02:39:23.764Z,14.95
2017-04-07T02:40:22.868Z,16.27
2017-04-07T02:41:21.984Z,14.27
2017-04-07T02:42:21.844Z,15.97
2017-04-07T02:43:20.947Z,13.67
2017-04-07T02:44:20.071Z,11.43
2017-04-07T02:45:19.203Z,11.77
2017-04-07T02:46:19.143Z,12.53
2017-04-07T02:47:19.096Z,13.33
2017-04-07T02:48:18.203Z,13.52
2017-04-07T02:49:17.339Z,12.62
2017-04-07T02:50:16.448Z,13.60
2017-04-07T02:51:15.592Z,14.08
2017-04-07T02:52:15.443Z,13.27
2017-04-07T02:53:14.592Z,11.52
2017-04-07T02:54:14.461Z,11.80
2017-04-07T02:55:13.575Z,12.00
2017-04-07T02:56:13.420Z,12.80
2017-04-07T02:57:12.625Z,12.65
2017-04-07T02:58:11.744Z,12.47
2017-04-07T02:59:11.716Z,11.87
2017-04-07T03:00:10.838Z,12.77
2017-04-07T03:01:10.735Z,13.12
2017-04-07T03:02:10.592Z,12.18
2017-04-07T03:03:09.699Z,14.33
2017-04-07T03:04:08.835Z,13.82
2017-04-07T03:05:08.044Z,15.43
2017-04-07T03:06:07.156Z,13.68
2017-04-07T03:07:06.263Z,10.88
2017-04-07T03:08:05.381Z,11.57
2017-04-07T03:09:04.959Z,12.55
2017-04-07T03:10:04.829Z,12.73
2017-04-07T03:11:03.935Z,13.87
2017-04-07T03:12:03.363Z,13.33
2017-04-07T03:13:02.468Z,11.68
2017-04-07T03:14:01.586Z,11.62
2017-04-07T03:15:00.716Z,13.35
2017-04-07T03:15:59.827Z,13.43
2017-04-07T03:16:58.935Z,12.17
2017-04-07T03:17:58.043Z,14.22
2017-04-07T03:18:57.467Z,14.07
2017-04-07T03:19:56.652Z,14.72
2017-04-07T03:20:55.801Z,13.93
2017-04-07T03:21:54.972Z,14.13
2017-04-07T03:22:54.083Z,14.38
2017-04-07T03:23:53.495Z,16.58
2017-04-07T03:24:53.411Z,11.78
2017-04-07T03:25:52.552Z,12.18
2017-04-07T03:26:51.660Z,16.42
2017-04-07T03:27:51.520Z,15.23
2017-04-07T03:28:50.643Z,14.18
2017-04-07T03:29:50.503Z,16.67
2017-04-07T03:30:49.632Z,13.12
2017-04-07T03:31:49.492Z,14.35
2017-04-07T03:32:48.607Z,14.48
2017-04-07T03:33:47.723Z,13.87
2017-04-07T03:34:47.576Z,13.08
2017-04-07T03:35:46.700Z,16.18
2017-04-07T03:36:46.555Z,17.20
2017-04-07T03:37:45.663Z,13.12
2017-04-07T03:38:44.771Z,13.78
2017-04-07T03:39:44.621Z,14.32
2017-04-07T03:40:43.760Z,13.03
2017-04-07T03:41:43.615Z,14.90
2017-04-07T03:42:42.726Z,13.78
2017-04-07T03:43:41.835Z,14.23
2017-04-07T03:44:41.701Z,12.73
2017-04-07T03:45:40.832Z,15.43
2017-04-07T03:46:40.812Z,13.87
2017-04-07T03:47:39.951Z,13.37
2017-04-07T03:48:39.083Z,13.75
2017-04-07T03:49:38.294Z,17.73
2017-04-07T03:50:38.148Z,14.38
2017-04-07T03:51:37.308Z,16.32
2017-04-07T03:52:36.415Z,15.03
2017-04-07T03:53:35.520Z,15.65
2017-04-07T03:54:34.636Z,13.53
2017-04-07T03:55:34.491Z,16.70
2017-04-07T03:56:33.623Z,13.33
2017-04-07T03:57:33.475Z,12.90
2017-04-07T03:58:32.592Z,14.48
2017-04-07T03:59:31.712Z,16.65
2017-04-07T04:00:31.574Z,15.12
2017-04-07T04:01:30.743Z,15.48
2017-04-07T04:02:29.859Z,22.35
2017-04-07T04:03:28.992Z,16.28
2017-04-07T04:04:28.222Z,15.80
2017-04-07T04:05:27.409Z,17.72
2017-04-07T04:06:26.552Z,17.20
2017-04-07T04:07:25.676Z,18.72
2017-04-07T04:08:24.783Z,15.75
2017-04-07T04:09:23.897Z,15.03
2017-04-07T04:10:23.754Z,16.98
2017-04-07T04:11:22.867Z,15.85
2017-04-07T04:12:22.307Z,14.30
2017-04-07T04:13:21.418Z,16.25
2017-04-07T04:14:20.536Z,18.95
2017-04-07T04:15:20.392Z,19.77
2017-04-07T04:16:19.504Z,15.77
2017-04-07T04:17:18.625Z,15.20
2017-04-07T04:18:18.482Z,17.60
2017-04-07T04:19:17.583Z,16.70
2017-04-07T04:20:16.720Z,22.17
2017-04-07T04:21:15.872Z,20.48
2017-04-07T04:22:15.764Z,15.88
2017-04-07T04:23:14.907Z,20.02
2017-04-07T04:24:14.027Z,17.70
2017-04-07T04:25:13.144Z,18.75
2017-04-07T04:26:13.005Z,16.98
2017-04-07T04:27:12.194Z,17.72
2017-04-07T04:28:11.319Z,16.77
2017-04-07T04:29:11.287Z,17.80
2017-04-07T04:30:10.424Z,14.43
2017-04-07T04:31:09.532Z,15.32
2017-04-07T04:32:08.644Z,19.30
2017-04-07T04:33:07.779Z,16.93
2017-04-07T04:34:07.631Z,16.65
2017-04-07T04:35:06.743Z,20.75
2017-04-07T04:36:06.167Z,21.15
2017-04-07T04:37:05.279Z,18.80
2017-04-07T04:38:04.412Z,17.48
2017-04-07T04:39:05.244Z,17.27
2017-04-07T04:40:05.092Z,14.80
2017-04-07T04:41:04.229Z,16.38
2017-04-07T04:42:04.098Z,16.72
2017-04-07T04:43:03.227Z,17.55
2017-04-07T04:44:03.089Z,19.12
2017-04-07T04:45:02.208Z,17.88
2017-04-07T04:46:02.056Z,15.95
2017-04-07T04:47:01.177Z,16.75
2017-04-07T04:48:00.292Z,15.72
2017-04-07T04:49:00.156Z,19.83
2017-04-07T04:49:59.267Z,18.03
2017-04-07T04:50:59.121Z,16.40
2017-04-07T04:51:58.239Z,16.53
2017-04-07T04:52:57.355Z,16.35
2017-04-07T04:53:57.196Z,16.03
2017-04-07T04:54:56.287Z,15.63
2017-04-07T04:55:55.407Z,14.00
2017-04-07T04:56:54.504Z,15.47
2017-04-07T04:57:54.383Z,16.17
2017-04-07T04:58:53.484Z,18.35
2017-04-07T04:59:52.584Z,16.07
2017-04-07T05:00:51.987Z,15.62
2017-04-07T05:01:51.823Z,16.87
2017-04-07T05:02:50.915Z,14.45
2017-04-07T05:03:50.036Z,14.70
2017-04-07T05:04:49.128Z,15.05
2017-04-07T05:05:48.983Z,15.25
2017-04-07T05:06:48.135Z,14.90
2017-04-07T05:07:47.980Z,14.35
2017-04-07T05:08:47.115Z,13.90
2017-04-07T05:09:46.951Z,15.87
2017-04-07T05:10:46.051Z,16.25
2017-04-07T05:11:45.164Z,20.55
2017-04-07T05:12:44.260Z,15.53
2017-04-07T05:13:43.371Z,17.37
2017-04-07T05:14:42.491Z,14.88
2017-04-07T05:15:41.596Z,16.05
2017-04-07T05:16:40.716Z,13.25
2017-04-07T05:17:40.551Z,15.47
2017-04-07T05:18:39.720Z,17.52
2017-04-07T05:19:38.824Z,15.08
2017-04-07T05:20:38.042Z,13.13
2017-04-07T05:21:37.133Z,15.20
2017-04-07T05:22:36.223Z,17.65
2017-04-07T05:23:35.584Z,18.15
2017-04-07T05:24:34.668Z,18.30
2017-04-07T05:25:33.759Z,15.20
2017-04-07T05:26:32.859Z,14.63
2017-04-07T05:27:31.951Z,13.87
2017-04-07T05:28:32.039Z,14.18
2017-04-07T05:29:31.155Z,12.75
2017-04-07T05:30:31.007Z,14.48
2017-04-07T05:31:30.107Z,20.38
2017-04-07T05:32:29.199Z,20.25
2017-04-07T05:33:28.292Z,16.58
2017-04-07T05:34:27.419Z,14.98
2017-04-07T05:35:27.421Z,17.52
2017-04-07T05:36:27.255Z,22.17
2017-04-07T05:37:55.187Z,19.55
2017-04-07T05:39:04.205Z,18.35
2017-04-07T05:40:10.460Z,17.22
2017-04-07T05:41:23.111Z,16.72
2017-04-07T05:42:32.803Z,18.98
2017-04-07T05:43:36.594Z,15.05
2017-04-07T05:44:36.428Z,20.00
2017-04-07T05:45:35.547Z,19.32
2017-04-07T05:46:34.644Z,19.90
2017-04-07T05:47:33.819Z,16.80
2017-04-07T05:48:32.932Z,14.88
2017-04-07T05:49:32.327Z,16.77
2017-04-07T05:50:32.194Z,13.67
2017-04-07T05:51:31.300Z,18.17
2017-04-07T05:52:30.407Z,16.40
2017-04-07T05:53:30.315Z,17.52
2017-04-07T05:54:30.177Z,22.12
2017-04-07T05:55:29.315Z,17.52
2017-04-07T05:56:28.449Z,12.05
2017-04-07T05:57:27.637Z,12.83
2017-04-07T05:58:26.735Z,14.35
2017-04-07T05:59:25.841Z,12.62
2017-04-07T06:00:25.702Z,16.03
2017-04-07T06:01:24.820Z,13.55
2017-04-07T06:02:24.667Z,15.38
2017-04-07T06:03:23.769Z,11.33
2017-04-07T06:04:22.865Z,13.23
2017-04-07T06:05:21.996Z,15.55
2017-04-07T06:06:21.852Z,15.43
2017-04-07T06:07:20.944Z,13.38
2017-04-07T06:08:20.041Z,16.90
2017-04-07T06:09:19.447Z,24.23
2017-04-07T06:10:18.871Z,17.25
2017-04-07T06:11:17.997Z,13.05
2017-04-07T06:12:17.119Z,15.07
2017-04-07T06:13:16.985Z,16.40
2017-04-07T06:14:16.085Z,13.97
2017-04-07T06:15:15.731Z,18.12
2017-04-07T06:16:14.875Z,16.37
2017-04-07T06:17:13.976Z,13.30
2017-04-07T06:18:13.816Z,13.68
2017-04-07T06:19:12.951Z,14.45
2017-04-07T06:20:12.064Z,13.75
2017-04-07T06:21:11.988Z,13.62
2017-04-07T06:22:11.088Z,12.47
2017-04-07T06:23:10.181Z,12.20
2017-04-07T06:24:09.276Z,15.37
2017-04-07T06:25:08.372Z,16.82
2017-04-07T06:26:07.506Z,13.32
2017-04-07T06:27:07.354Z,12.73
2017-04-07T06:28:06.459Z,15.55
2017-04-07T06:29:05.556Z,13.17
2017-04-07T06:30:05.391Z,14.90
2017-04-07T06:31:04.504Z,14.02
2017-04-07T06:32:03.616Z,13.77
2017-04-07T06:33:02.717Z,12.87
2017-04-07T06:34:02.563Z,17.45
2017-04-07T06:35:01.660Z,22.18
2017-04-07T06:36:01.039Z,21.03
2017-04-07T06:37:00.138Z,20.30
2017-04-07T06:37:59.339Z,19.98
2017-04-07T06:38:58.443Z,23.22
2017-04-07T06:39:57.552Z,27.83
2017-04-07T06:40:57.398Z,20.28
2017-04-07T06:41:56.512Z,26.87
2017-04-07T06:42:55.612Z,24.58
2017-04-07T06:43:55.447Z,24.17
2017-04-07T06:44:54.552Z,19.67
2017-04-07T06:45:53.652Z,21.68
2017-04-07T06:46:52.788Z,16.03
2017-04-07T06:47:52.194Z,22.68
2017-04-07T06:48:51.375Z,24.87
2017-04-07T06:49:50.504Z,22.52
2017-04-07T06:50:49.640Z,22.35
2017-04-07T06:51:49.380Z,21.35
2017-04-07T06:52:48.497Z,16.47
2017-04-07T06:53:47.631Z,17.03
2017-04-07T06:54:46.855Z,26.30
2017-04-07T06:55:46.712Z,23.47
2017-04-07T06:56:45.871Z,25.73
2017-04-07T06:57:45.338Z,26.80
2017-04-07T06:58:44.445Z,28.93
2017-04-07T06:59:43.555Z,24.48
2017-04-07T07:00:43.408Z,25.55
2017-04-07T07:01:42.779Z,24.35
2017-04-07T07:02:49.087Z,27.02
2017-04-07T07:03:48.976Z,28.97
2017-04-07T07:04:48.388Z,29.03
2017-04-07T07:05:48.520Z,24.73
2017-04-07T07:06:47.655Z,26.05
2017-04-07T07:07:46.775Z,25.77
2017-04-07T07:08:46.639Z,27.23
2017-04-07T07:09:45.747Z,27.47
2017-04-07T07:10:45.163Z,27.77
2017-04-07T07:11:44.271Z,17.98
2017-04-07T07:12:43.411Z,22.18
2017-04-07T07:13:42.515Z,22.70
2017-04-07T07:14:42.360Z,22.23
2017-04-07T07:15:41.507Z,27.83
2017-04-07T07:16:41.367Z,25.75
2017-04-07T07:17:40.492Z,25.55
2017-04-07T07:18:40.344Z,25.67
2017-04-07T07:19:39.459Z,26.17
2017-04-07T07:20:38.568Z,22.43
2017-04-07T07:21:38.416Z,17.63
2017-04-07T07:22:37.551Z,20.58
2017-04-07T07:23:37.407Z,26.52
2017-04-07T07:24:36.519Z,26.83
2017-04-07T07:25:35.647Z,26.08
2017-04-07T07:26:34.791Z,26.38
2017-04-07T07:27:33.908Z,23.35
2017-04-07T07:28:33.780Z,24.30
2017-04-07T07:29:32.887Z,26.40
2017-04-07T07:30:32.727Z,23.32
2017-04-07T07:31:31.844Z,28.38
2017-04-07T07:32:31.059Z,24.92
2017-04-07T07:33:30.948Z,24.15
2017-04-07T07:34:30.044Z,27.75
2017-04-07T07:35:29.879Z,22.17
2017-04-07T07:36:29.625Z,24.88
2017-04-07T07:37:28.809Z,23.00
2017-04-07T07:38:27.900Z,26.17
2017-04-07T07:39:27.027Z,23.65
2017-04-07T07:40:26.864Z,24.18
2017-04-07T07:41:25.967Z,25.67
2017-04-07T07:42:25.067Z,29.23
2017-04-07T07:43:24.180Z,27.63
2017-04-07T07:44:24.042Z,27.55
2017-04-07T07:45:23.139Z,26.13
2017-04-07T07:46:22.232Z,26.95
2017-04-07T07:47:21.348Z,26.18
2017-04-07T07:48:20.448Z,30.55
2017-04-07T07:49:19.808Z,22.90
2017-04-07T07:50:19.644Z,24.88
2017-04-07T07:51:18.743Z,29.70
2017-04-07T07:52:17.848Z,25.22
2017-04-07T07:53:16.943Z,25.30
2017-04-07T07:54:16.040Z,27.20
2017-04-07T07:55:15.168Z,27.13
2017-04-07T07:56:14.290Z,28.45
2017-04-07T07:57:13.388Z,26.48
2017-04-07T07:58:12.480Z,28.78
2017-04-07T07:59:11.580Z,26.68
2017-04-07T08:00:11.517Z,24.43
2017-04-07T08:01:10.623Z,27.48
2017-04-07T08:02:09.728Z,25.37
2017-04-07T08:03:08.811Z,29.17
2017-04-07T08:04:07.907Z,30.65
2017-04-07T08:05:07.362Z,23.73
2017-04-07T08:06:06.451Z,27.20
2017-04-07T08:07:05.536Z,27.68
2017-04-07T08:08:04.627Z,28.93
2017-04-07T08:09:04.996Z,25.63
2017-04-07T08:10:04.836Z,27.07
2017-04-07T08:11:03.981Z,24.28
2017-04-07T08:12:03.827Z,24.57
2017-04-07T08:13:02.920Z,25.40
2017-04-07T08:14:02.056Z,25.75
2017-04-07T08:15:01.895Z,24.20
2017-04-07T08:16:01.009Z,30.23
2017-04-07T08:17:00.104Z,26.08
2017-04-07T08:17:59.196Z,27.07
2017-04-07T08:18:58.296Z,26.17
2017-04-07T08:19:58.135Z,23.38
2017-04-07T08:20:57.252Z,25.68
2017-04-07T08:21:56.348Z,26.93
2017-04-07T08:22:55.459Z,26.53
2017-04-07T08:23:55.304Z,24.63
2017-04-07T08:24:54.391Z,27.93
2017-04-07T08:25:53.772Z,23.55
2017-04-07T08:26:52.864Z,26.50
2017-04-07T08:27:51.960Z,30.30
2017-04-07T08:28:51.058Z,32.27
2017-04-07T08:29:50.161Z,25.77
2017-04-07T08:30:49.252Z,25.90
2017-04-07T08:31:48.372Z,26.38
2017-04-07T08:32:47.471Z,27.12
2017-04-07T08:33:46.572Z,23.50
2017-04-07T08:34:45.676Z,24.67
2017-04-07T08:35:44.772Z,26.13
2017-04-07T08:36:43.876Z,27.00
2017-04-07T08:37:43.723Z,25.90
2017-04-07T08:38:42.820Z,23.65
2017-04-07T08:39:41.963Z,24.20
2017-04-07T08:40:41.816Z,23.40
2017-04-07T08:41:40.964Z,24.02
2017-04-07T08:42:40.071Z,24.63
2017-04-07T08:43:39.159Z,23.68
2017-04-07T08:44:38.408Z,25.15
2017-04-07T08:45:38.304Z,22.30
2017-04-07T08:46:38.148Z,27.78
2017-04-07T08:47:37.303Z,20.88
2017-04-07T08:48:37.156Z,24.52
2017-04-07T08:49:36.279Z,24.38
2017-04-07T08:50:36.147Z,24.25
2017-04-07T08:51:35.280Z,29.78
2017-04-07T08:52:35.715Z,22.52
2017-04-07T08:53:34.838Z,29.47
2017-04-07T08:54:34.738Z,25.95
2017-04-07T08:55:33.916Z,23.70
2017-04-07T08:56:33.028Z,22.93
2017-04-07T08:57:32.159Z,26.18
2017-04-07T08:58:31.391Z,27.42
2017-04-07T08:59:30.509Z,24.78
2017-04-07T09:00:30.436Z,25.17
2017-04-07T09:01:29.552Z,22.03
2017-04-07T09:02:28.908Z,24.47
2017-04-07T09:03:28.019Z,23.27
2017-04-07T09:04:27.129Z,26.93
2017-04-07T09:05:27.119Z,23.52
2017-04-07T09:06:26.324Z,26.75
2017-04-07T09:07:25.455Z,25.05
2017-04-07T09:08:25.312Z,29.28
2017-04-07T09:09:24.419Z,27.45
2017-04-07T09:10:23.835Z,26.42
2017-04-07T09:11:23.702Z,22.13
2017-04-07T09:12:22.816Z,23.62
2017-04-07T09:13:22.692Z,24.25
2017-04-07T09:14:21.807Z,24.95
2017-04-07T09:15:21.717Z,25.03
2017-04-07T09:16:21.631Z,22.18
2017-04-07T09:17:20.747Z,22.88
2017-04-07T09:18:20.019Z,22.62
2017-04-07T09:19:19.138Z,26.92
2017-04-07T09:20:18.256Z,22.32
2017-04-07T09:21:18.108Z,22.08
2017-04-07T09:22:17.252Z,27.68
2017-04-07T09:23:17.132Z,25.37
2017-04-07T09:24:16.252Z,25.33
2017-04-07T09:25:16.106Z,23.70
2017-04-07T09:26:15.215Z,22.37
2017-04-07T09:27:14.623Z,22.02
2017-04-07T09:28:14.500Z,24.60
2017-04-07T09:29:13.935Z,23.42
2017-04-07T09:30:13.100Z,24.83
2017-04-07T09:31:12.966Z,24.27
2017-04-07T09:32:12.085Z,26.80
2017-04-07T09:33:11.956Z,23.90
2017-04-07T09:34:11.083Z,25.28
2017-04-07T09:35:10.988Z,27.52
2017-04-07T09:36:10.854Z,26.92
2017-04-07T09:37:09.974Z,22.92
2017-04-07T09:38:09.900Z,26.97
2017-04-07T09:39:09.063Z,24.48
2017-04-07T09:40:08.978Z,23.93
2017-04-07T09:41:08.840Z,23.23
2017-04-07T09:42:07.980Z,25.48
2017-04-07T09:43:07.123Z,24.98
2017-04-07T09:44:06.242Z,24.40
2017-04-07T09:45:06.104Z,24.40
2017-04-07T09:46:05.230Z,23.95
2017-04-07T09:47:05.193Z,23.62
2017-04-07T09:48:04.381Z,24.13
2017-04-07T09:49:03.488Z,26.57
2017-04-07T09:50:02.595Z,22.15
2017-04-07T09:51:02.436Z,28.05
2017-04-07T09:52:01.540Z,20.15
2017-04-07T09:53:00.667Z,20.97
2017-04-07T09:54:00.508Z,26.00
2017-04-07T09:54:59.608Z,21.83
2017-04-07T09:55:58.716Z,23.17
2017-04-07T09:56:57.818Z,21.60
2017-04-07T09:57:57.659Z,20.47
2017-04-07T09:58:56.780Z,23.23
2017-04-07T09:59:55.885Z,24.62
2017-04-07T10:00:55.724Z,20.75
2017-04-07T10:01:54.832Z,19.48
2017-04-07T10:02:53.931Z,19.60
2017-04-07T10:03:53.057Z,19.97
2017-04-07T10:04:52.996Z,23.45
2017-04-07T10:05:52.092Z,22.48
2017-04-07T10:06:51.199Z,22.85
2017-04-07T10:07:50.295Z,24.98
2017-04-07T10:08:49.423Z,24.32
2017-04-07T10:09:48.654Z,25.15
2017-04-07T10:10:47.752Z,20.97
2017-04-07T10:11:46.858Z,22.75
2017-04-07T10:12:46.832Z,25.83
2017-04-07T10:13:45.939Z,25.50
2017-04-07T10:14:45.814Z,24.50
2017-04-07T10:15:44.912Z,23.48
2017-04-07T10:16:44.013Z,19.05
2017-04-07T10:17:43.414Z,25.32
2017-04-07T10:18:43.251Z,20.42
2017-04-07T10:19:42.360Z,21.98
2017-04-07T10:20:41.483Z,18.87
2017-04-07T10:21:41.328Z,24.27
2017-04-07T10:22:40.480Z,28.22
2017-04-07T10:23:40.335Z,23.12
2017-04-07T10:24:39.440Z,28.42
2017-04-07T10:25:38.575Z,23.85
2017-04-07T10:26:37.684Z,26.60
2017-04-07T10:27:36.795Z,25.38
2017-04-07T10:28:36.430Z,26.17
2017-04-07T10:29:36.272Z,22.73
2017-04-07T10:30:35.392Z,24.23
2017-04-07T10:31:34.496Z,23.22
2017-04-07T10:32:34.344Z,25.95
2017-04-07T10:33:33.487Z,23.22
2017-04-07T10:34:33.376Z,28.77
2017-04-07T10:35:32.507Z,25.17
2017-04-07T10:36:31.604Z,21.12
2017-04-07T10:37:30.735Z,25.53
2017-04-07T10:38:29.939Z,26.78
2017-04-07T10:39:29.784Z,25.72
2017-04-07T10:40:28.992Z,18.93
2017-04-07T10:41:28.112Z,21.83
2017-04-07T10:42:27.960Z,21.07
2017-04-07T10:43:27.062Z,24.85
2017-04-07T10:44:26.160Z,24.27
2017-04-07T10:45:25.276Z,22.00
2017-04-07T10:46:25.139Z,20.20
2017-04-07T10:47:24.262Z,22.05
2017-04-07T10:48:24.111Z,23.87
2017-04-07T10:49:23.209Z,23.85
2017-04-07T10:50:22.312Z,24.78
2017-04-07T10:51:21.436Z,23.13
2017-04-07T10:52:20.539Z,23.97
2017-04-07T10:53:19.645Z,24.50
2017-04-07T10:54:18.748Z,20.42
2017-04-07T10:55:18.856Z,22.32
2017-04-07T10:56:17.981Z,25.10
2017-04-07T10:57:17.831Z,22.33
2017-04-07T10:58:16.939Z,22.38
2017-04-07T10:59:16.043Z,21.97
2017-04-07T11:00:15.972Z,18.18
2017-04-07T11:01:15.096Z,18.77
2017-04-07T11:02:14.199Z,21.78
2017-04-07T11:03:13.304Z,23.02
2017-04-07T11:04:13.160Z,18.80
2017-04-07T11:05:12.276Z,21.95
2017-04-07T11:06:11.396Z,22.52
2017-04-07T11:07:10.515Z,22.65
2017-04-07T11:08:09.722Z,19.43
2017-04-07T11:09:08.819Z,19.63
2017-04-07T11:10:07.924Z,22.50
2017-04-07T11:11:07.775Z,23.47
2017-04-07T11:12:06.896Z,28.47
2017-04-07T11:13:06.001Z,25.27
2017-04-07T11:14:05.848Z,24.77
2017-04-07T11:15:04.959Z,23.02
2017-04-07T11:16:04.051Z,25.98
2017-04-07T11:17:03.183Z,21.75
2017-04-07T11:18:02.287Z,25.58
2017-04-07T11:19:01.508Z,24.63
2017-04-07T11:20:00.604Z,23.28
2017-04-07T11:20:59.718Z,22.35
2017-04-07T11:21:59.572Z,26.63
2017-04-07T11:22:58.680Z,24.10
2017-04-07T11:23:58.083Z,23.87
2017-04-07T11:24:57.928Z,24.40
2017-04-07T11:25:57.024Z,20.40
2017-04-07T11:26:56.160Z,22.95
2017-04-07T11:27:55.996Z,19.98
2017-04-07T11:28:55.100Z,19.13
2017-04-07T11:29:54.200Z,22.82
2017-04-07T11:30:53.303Z,25.35
2017-04-07T11:31:52.509Z,28.53
2017-04-07T11:32:52.370Z,25.57
2017-04-07T11:33:51.508Z,28.10
2017-04-07T11:34:51.355Z,23.83
2017-04-07T11:35:50.452Z,22.85
2017-04-07T11:36:49.638Z,25.05
2017-04-07T11:37:48.759Z,28.10
2017-04-07T11:38:48.604Z,20.68
2017-04-07T11:39:47.728Z,22.10
2017-04-07T11:40:46.828Z,22.93
2017-04-07T11:41:46.701Z,21.05
2017-04-07T11:42:45.801Z,22.45
2017-04-07T11:43:44.928Z,21.87
2017-04-07T11:44:44.031Z,23.03
2017-04-07T11:45:43.131Z,24.67
2017-04-07T11:46:42.263Z,24.43
2017-04-07T11:47:42.136Z,21.03
2017-04-07T11:48:41.272Z,25.12
2017-04-07T11:49:40.387Z,24.90
2017-04-07T11:50:39.504Z,22.60
2017-04-07T11:51:38.907Z,23.00
2017-04-07T11:52:38.331Z,25.35
2017-04-07T11:53:37.469Z,25.47
2017-04-07T11:54:36.592Z,22.75
2017-04-07T11:55:36.554Z,20.15
2017-04-07T11:56:35.687Z,22.28
2017-04-07T11:57:35.547Z,22.50
2017-04-07T11:58:34.680Z,21.97
2017-04-07T11:59:33.796Z,23.97
2017-04-07T12:00:32.991Z,24.38
2017-04-07T12:01:32.132Z,23.67
2017-04-07T12:02:32.441Z,21.50
2017-04-07T12:03:32.340Z,17.20
2017-04-07T12:04:32.196Z,25.55
2017-04-07T12:05:31.307Z,22.72
2017-04-07T12:06:30.424Z,21.82
2017-04-07T12:07:30.281Z,24.17
2017-04-07T12:08:29.400Z,21.53
2017-04-07T12:09:29.290Z,21.62
2017-04-07T12:10:28.404Z,23.63
2017-04-07T12:11:28.263Z,21.00
2017-04-07T12:12:27.380Z,23.20
2017-04-07T12:13:27.245Z,22.00
2017-04-07T12:14:26.388Z,24.00
2017-04-07T12:15:25.503Z,23.93
2017-04-07T12:16:24.608Z,24.82
2017-04-07T12:17:23.725Z,26.80
2017-04-07T12:18:23.583Z,17.72
2017-04-07T12:19:22.717Z,18.68
2017-04-07T12:20:22.585Z,22.88
2017-04-07T12:21:21.716Z,21.95
2017-04-07T12:22:21.576Z,21.65
2017-04-07T12:23:20.696Z,24.87
2017-04-07T12:24:20.580Z,19.93
2017-04-07T12:25:19.696Z,22.88
2017-04-07T12:26:19.568Z,21.87
2017-04-07T12:27:18.686Z,18.98
2017-04-07T12:28:18.550Z,18.13
2017-04-07T12:29:17.684Z,19.30
2017-04-07T12:30:16.800Z,23.37
2017-04-07T12:31:15.917Z,19.00
2017-04-07T12:32:15.319Z,22.05
2017-04-07T12:33:15.180Z,20.97
2017-04-07T12:34:14.569Z,23.32
2017-04-07T12:35:13.692Z,22.28
2017-04-07T12:36:12.803Z,19.27
2017-04-07T12:37:12.761Z,19.65
2017-04-07T12:38:11.872Z,17.63
2017-04-07T12:39:11.291Z,20.78
2017-04-07T12:40:10.436Z,22.52
2017-04-07T12:41:09.556Z,22.40
2017-04-07T12:42:09.460Z,17.58
2017-04-07T12:43:09.340Z,18.57
2017-04-07T12:44:08.549Z,20.02
2017-04-07T12:45:08.424Z,21.27
2017-04-07T12:46:07.640Z,22.67
2017-04-07T12:47:07.532Z,20.12
2017-04-07T12:48:06.959Z,19.28
2017-04-07T12:49:06.333Z,20.43